Monatstabelle

Bitte in den Auwahlmenüs den gewünschte Zeiraum wählen und die Schaltfläche "Anfrage absenden" betätigen. Beginn der Aufzeichnung ist 2007 - Dezember. Vor diesem Zeitraum sind keine Daten verfügbar.

2020 - Mai

 

Datum Temperatur (°C) Luftdruck (hPa) Luftfeuchte (%) Regen
(l/m²)
Wind (km/h)
avg: min: max: avg: min: max: avg: min: max: avg: max:
01.05.2020 13,6 9,3 20,9 1002,8 1001,6 1005,1 64 45 79 3,8 5,9 14,2
02.05.2020 12,7 9,3 20,8 1005,8 1002,9 1009,2 55 36 71 0,0 5,3 20,6
03.05.2020 9,9 5,0 15,1 1014,3 1008,8 1015,9 59 48 70 0,3 8,9 22,7
04.05.2020 13,3 3,0 20,8 1013,3 1010,9 1016,0 58 41 80 0,5 1,3 7,1
05.05.2020 10,4 7,0 15,3 1012,2 1009,9 1015,5 69 56 81 4,1 6,6 13,5
06.05.2020 9,4 0,8 16,5 1016,3 1014,9 1017,1 59 45 82 0,1 7,7 25,6
07.05.2020 14,6 5,4 22,3 1017,2 1015,8 1018,2 48 34 68 0,0 2,9 19,6
08.05.2020 17,3 4,4 26,5 1014,0 1012,2 1018,8 53 37 72 0,0 2,4 8,5
09.05.2020 21,7 9,1 28,3 1010,0 1007,5 1012,9 49 37 77 0,0 0,1 6,3
10.05.2020 17,6 11,5 26,3 1004,8 1003,3 1007,5 64 41 74 0,0 0,0 0,0
11.05.2020 17,7 10,3 23,9 998,5 994,2 1003,3 57 40 73 0,0 0,0 0,0
12.05.2020 8,4 5,6 15,5 1012,9 1000,7 1014,6 53 40 67 0,0 0,0 0,0
13.05.2020 15,7 7,0 21,7 1005,7 1003,2 1013,2 62 47 73 0,0 0,0 0,0
14.05.2020 13,0 8,5 18,1 1010,6 1003,4 1012,1 64 54 77 0,5 0,0 0,0
15.05.2020 8,3 5,5 10,9 1012,9 1008,3 1017,9 78 70 82 4,4 0,0 0,0
16.05.2020 13,8 4,5 19,5 1017,9 1015,9 1020,1 62 49 84 0,0 0,0 0,0
17.05.2020 16,0 9,5 23,9 1017,2 1014,4 1019,2 60 42 76 0,0 0,0 0,0
18.05.2020 19,3 8,9 26,7 1017,8 1016,5 1019,9 56 42 81 0,0 0,0 0,0
19.05.2020 18,7 11,4 27,1 1014,9 1013,6 1017,5 61 42 73 0,1 0,0 0,0
20.05.2020 16,3 12,8 21,6 1015,2 1013,4 1017,1 57 45 75 0,0 0,0 0,0
21.05.2020 15,3 8,8 21,9 1018,5 1016,9 1020,8 50 33 68 0,1 0,0 0,0
22.05.2020 16,8 4,7 24,7 1019,8 1018,4 1021,4 53 32 79 0,4 0,0 0,0
23.05.2020 17,3 12,4 24,4 1018,8 1013,6 1020,9 76 53 87 15,8 0,0 0,0
24.05.2020 13,7 10,3 19,7 1023,7 1019,4 1024,6 61 40 81 0,0 0,0 0,0
25.05.2020 12,6 9,9 17,3 1023,3 1021,7 1024,9 75 59 83 8,4 0,0 0,0
26.05.2020 10,6 8,8 14,9 1026,7 1024,5 1027,9 81 69 88 5,5 0,0 0,0
27.05.2020 14,4 6,4 20,3 1025,8 1024,2 1028,0 66 43 91 0,1 0,0 0,0
28.05.2020 11,8 7,5 17,3 1021,3 1020,1 1024,2 80 58 85 3,4 0,0 0,0
29.05.2020 13,3 10,4 18,5 1019,3 1017,8 1021,4 72 53 83 0,7 0,0 0,0
30.05.2020 11,4 5,8 15,3 1015,3 1013,8 1018,2 73 54 90 0,0 0,0 0,0
31.05.2020 10,1 6,7 13,1 1012,6 1012,6 1015,1 76 61 85 0,0 0,0 0,0
avg. 14,0 1014,8 63   ---
  Summe Regen: 48,4  
 
Min-Datum 06.05.2020 11.05.2020 22.05.2020 --- ---
Min-Zeit 06:18 17:38 15:18 --- ---
Minimum 0,8 994,2 32 --- ---
 

Max-Datum

09.05.2020 27.05.2020 27.05.2020 23.05.2020 06.05.2020
Max-Zeit 14:12 10:38 07:08 20:16 12:32
Maximum 28,3 1028,0 91 15,8 25,6
 

 

  Letztes Jahr
gleiches Monat
Eistage max < 0°C 0 0
Frosttage min < 0°C 0 0
Sommertage max >=25°C 5 1
Heiße Tage max >=30°C 0 0

 

<<< nach oben >>>